createdAt,value
2019-01-23T00:00:01.283Z,54.98
2019-01-23T00:00:32.449Z,53.70
2019-01-23T00:01:03.620Z,53.98
2019-01-23T00:01:34.796Z,54.90
2019-01-23T00:02:05.970Z,54.53
2019-01-23T00:02:37.169Z,55.45
2019-01-23T00:03:08.419Z,54.05
2019-01-23T00:03:39.614Z,54.50
2019-01-23T00:04:10.797Z,55.80
2019-01-23T00:04:41.975Z,53.55
2019-01-23T00:05:13.236Z,57.35
2019-01-23T00:05:44.426Z,55.35
2019-01-23T00:06:15.598Z,52.20
2019-01-23T00:06:46.767Z,53.28
2019-01-23T00:07:17.957Z,54.35
2019-01-23T00:07:49.191Z,51.68
2019-01-23T00:08:20.428Z,51.50
2019-01-23T00:08:51.626Z,51.73
2019-01-23T00:09:22.802Z,52.93
2019-01-23T00:09:54.292Z,52.13
2019-01-23T00:10:25.488Z,52.03
2019-01-23T00:10:56.656Z,51.02
2019-01-23T00:11:27.845Z,51.85
2019-01-23T00:11:59.020Z,49.73
2019-01-23T00:12:30.204Z,48.65
2019-01-23T00:13:01.464Z,49.23
2019-01-23T00:13:32.677Z,51.68
2019-01-23T00:14:03.858Z,50.15
2019-01-23T00:14:35.071Z,52.88
2019-01-23T00:15:06.248Z,53.05
2019-01-23T00:15:37.416Z,52.10
2019-01-23T00:16:09.665Z,51.23
2019-01-23T00:16:40.887Z,52.17
2019-01-23T00:17:12.902Z,49.98
2019-01-23T00:17:44.102Z,49.08
2019-01-23T00:18:15.264Z,49.45
2019-01-23T00:18:46.431Z,47.58
2019-01-23T00:19:17.610Z,47.83
2019-01-23T00:19:48.773Z,49.85
2019-01-23T00:20:20.015Z,47.15
2019-01-23T00:20:51.189Z,47.75
2019-01-23T00:21:22.382Z,47.17
2019-01-23T00:21:53.578Z,47.13
2019-01-23T00:22:24.775Z,47.40
2019-01-23T00:22:55.967Z,49.35
2019-01-23T00:23:27.183Z,49.73
2019-01-23T00:23:58.350Z,47.50
2019-01-23T00:24:29.525Z,48.90
2019-01-23T00:25:00.684Z,47.90
2019-01-23T00:25:31.914Z,48.08
2019-01-23T00:26:03.109Z,47.88
2019-01-23T00:26:34.272Z,45.33
2019-01-23T00:27:05.430Z,45.83
2019-01-23T00:27:36.613Z,45.30
2019-01-23T00:28:07.821Z,45.90
2019-01-23T00:28:42.459Z,47.78
2019-01-23T00:29:11.989Z,46.23
2019-01-23T00:29:43.175Z,46.55
2019-01-23T00:30:14.428Z,46.60
2019-01-23T00:30:45.614Z,46.65
2019-01-23T00:31:16.860Z,46.20
2019-01-23T00:31:48.034Z,47.05
2019-01-23T00:32:19.208Z,47.00
2019-01-23T00:32:50.468Z,47.40
2019-01-23T00:33:21.635Z,46.42
2019-01-23T00:33:52.841Z,45.95
2019-01-23T00:34:24.032Z,48.17
2019-01-23T00:34:55.219Z,46.98
2019-01-23T00:35:26.434Z,45.15
2019-01-23T00:35:57.590Z,47.67
2019-01-23T00:36:28.799Z,47.03
2019-01-23T00:37:00.024Z,47.33
2019-01-23T00:37:31.198Z,49.13
2019-01-23T00:38:02.415Z,49.38
2019-01-23T00:38:33.606Z,46.90
2019-01-23T00:39:04.805Z,49.13
2019-01-23T00:39:35.968Z,50.33
2019-01-23T00:40:07.156Z,51.92
2019-01-23T00:40:38.357Z,49.63
2019-01-23T00:41:09.580Z,50.50
2019-01-23T00:41:40.746Z,49.85
2019-01-23T00:42:11.923Z,51.60
2019-01-23T00:42:43.090Z,51.23
2019-01-23T00:43:14.326Z,50.58
2019-01-23T00:43:45.537Z,47.78
2019-01-23T00:44:16.750Z,50.12
2019-01-23T00:44:47.914Z,49.63
2019-01-23T00:45:19.100Z,50.45
2019-01-23T00:45:50.302Z,48.90
2019-01-23T00:46:21.488Z,49.10
2019-01-23T00:46:52.692Z,48.15
2019-01-23T00:47:23.870Z,46.53
2019-01-23T00:47:55.077Z,45.65
2019-01-23T00:48:26.295Z,47.65
2019-01-23T00:48:57.471Z,49.03
2019-01-23T00:49:28.684Z,48.52
2019-01-23T00:49:59.848Z,49.23
2019-01-23T00:50:31.027Z,50.35
2019-01-23T00:51:02.267Z,46.15
2019-01-23T00:51:34.535Z,45.88
2019-01-23T00:52:05.715Z,48.63
2019-01-23T00:52:36.888Z,47.75
2019-01-23T00:53:08.061Z,51.40
2019-01-23T00:53:39.232Z,47.58
2019-01-23T00:54:10.442Z,52.38
2019-01-23T00:54:41.672Z,52.73
2019-01-23T00:55:12.854Z,51.88
2019-01-23T00:55:44.046Z,52.25
2019-01-23T00:56:15.230Z,50.63
2019-01-23T00:56:46.439Z,52.03
2019-01-23T00:57:17.651Z,54.65
2019-01-23T00:57:48.912Z,54.42
2019-01-23T00:58:20.113Z,53.40
2019-01-23T00:58:51.314Z,53.70
2019-01-23T00:59:24.633Z,55.23
2019-01-23T00:59:55.838Z,55.28
2019-01-23T01:00:27.040Z,53.87
2019-01-23T01:00:58.216Z,55.05
2019-01-23T01:01:29.392Z,54.98
2019-01-23T01:02:00.552Z,56.20
2019-01-23T01:02:32.097Z,54.53
2019-01-23T01:03:03.281Z,55.00
2019-01-23T01:03:34.486Z,55.08
2019-01-23T01:04:05.684Z,54.45
2019-01-23T01:04:36.899Z,53.73
2019-01-23T01:05:08.078Z,54.95
2019-01-23T01:05:39.293Z,52.25
2019-01-23T01:06:10.506Z,52.35
2019-01-23T01:06:41.668Z,53.68
2019-01-23T01:07:12.856Z,53.60
2019-01-23T01:07:44.038Z,55.20
2019-01-23T01:08:15.223Z,53.02
2019-01-23T01:08:46.478Z,53.83
2019-01-23T01:09:17.649Z,54.00
2019-01-23T01:09:48.832Z,52.70
2019-01-23T01:10:20.046Z,52.35
2019-01-23T01:10:51.683Z,54.30
2019-01-23T01:11:22.869Z,52.80
2019-01-23T01:11:54.042Z,52.98
2019-01-23T01:12:25.247Z,53.10
2019-01-23T01:12:56.459Z,52.13
2019-01-23T01:13:27.719Z,53.13
2019-01-23T01:13:58.893Z,51.98
2019-01-23T01:14:30.083Z,51.35
2019-01-23T01:15:01.257Z,53.00
2019-01-23T01:15:32.457Z,55.05
2019-01-23T01:16:03.686Z,53.83
2019-01-23T01:16:34.863Z,53.45
2019-01-23T01:17:06.049Z,54.18
2019-01-23T01:17:37.243Z,51.80
2019-01-23T01:18:08.473Z,53.50
2019-01-23T01:18:39.704Z,52.70
2019-01-23T01:19:10.893Z,53.60
2019-01-23T01:19:42.083Z,53.73
2019-01-23T01:20:13.313Z,51.00
2019-01-23T01:20:44.532Z,53.05
2019-01-23T01:21:15.806Z,52.93
2019-01-23T01:21:46.982Z,51.88
2019-01-23T01:22:18.197Z,52.40
2019-01-23T01:22:49.405Z,51.63
2019-01-23T01:23:20.573Z,51.13
2019-01-23T01:23:51.786Z,49.65
2019-01-23T01:24:23.015Z,51.20
2019-01-23T01:24:54.195Z,51.50
2019-01-23T01:25:25.388Z,50.40
2019-01-23T01:25:56.540Z,49.45
2019-01-23T01:26:27.760Z,49.18
2019-01-23T01:26:58.941Z,51.18
2019-01-23T01:27:30.165Z,48.95
2019-01-23T01:28:01.314Z,50.45
2019-01-23T01:28:32.504Z,48.68
2019-01-23T01:29:03.713Z,49.10
2019-01-23T01:29:34.932Z,47.85
2019-01-23T01:30:06.107Z,49.55
2019-01-23T01:30:37.295Z,49.90
2019-01-23T01:31:08.468Z,49.83
2019-01-23T01:31:39.682Z,51.75
2019-01-23T01:32:10.859Z,49.88
2019-01-23T01:32:42.091Z,50.88
2019-01-23T01:33:13.262Z,49.20
2019-01-23T01:33:44.451Z,50.00
2019-01-23T01:34:15.641Z,52.17
2019-01-23T01:34:46.816Z,51.75
2019-01-23T01:35:17.984Z,51.37
2019-01-23T01:35:49.203Z,51.80
2019-01-23T01:36:20.362Z,52.15
2019-01-23T01:36:51.578Z,51.60
2019-01-23T01:37:22.731Z,50.90
2019-01-23T01:37:53.962Z,51.23
2019-01-23T01:38:25.133Z,51.13
2019-01-23T01:38:56.302Z,50.78
2019-01-23T01:39:27.521Z,51.20
2019-01-23T01:39:58.695Z,50.30
2019-01-23T01:40:29.870Z,51.05
2019-01-23T01:41:01.042Z,51.20
2019-01-23T01:41:32.226Z,48.65
2019-01-23T01:42:03.395Z,51.98
2019-01-23T01:42:34.573Z,50.75
2019-01-23T01:43:05.789Z,49.45
2019-01-23T01:43:36.964Z,48.33
2019-01-23T01:44:08.146Z,48.78
2019-01-23T01:44:39.373Z,50.03
2019-01-23T01:45:10.556Z,50.52
2019-01-23T01:45:41.742Z,50.25
2019-01-23T01:46:12.901Z,51.20
2019-01-23T01:46:44.095Z,51.20
2019-01-23T01:47:15.281Z,51.60
2019-01-23T01:47:46.461Z,51.55
2019-01-23T01:48:17.690Z,51.18
2019-01-23T01:48:48.860Z,53.28
2019-01-23T01:49:20.026Z,51.85
2019-01-23T01:49:51.193Z,51.48
2019-01-23T01:50:22.443Z,51.70
2019-01-23T01:50:53.604Z,52.98
2019-01-23T01:51:24.820Z,51.45
2019-01-23T01:51:56.051Z,51.40
2019-01-23T01:52:27.223Z,53.78
2019-01-23T01:52:58.410Z,52.48
2019-01-23T01:53:29.587Z,51.10
2019-01-23T01:54:00.801Z,53.60
2019-01-23T01:54:31.979Z,52.00
2019-01-23T01:55:03.152Z,49.60
2019-01-23T01:55:34.348Z,50.60
2019-01-23T01:56:05.523Z,53.98
2019-01-23T01:56:36.739Z,51.70
2019-01-23T01:57:07.916Z,52.73
2019-01-23T01:57:39.105Z,53.55
2019-01-23T01:58:10.406Z,52.78
2019-01-23T01:58:41.563Z,52.00
2019-01-23T01:59:12.791Z,52.53
2019-01-23T01:59:43.985Z,53.17
2019-01-23T02:00:15.148Z,50.90
2019-01-23T02:00:46.330Z,50.52
2019-01-23T02:01:17.499Z,51.88
2019-01-23T02:01:48.665Z,52.78
2019-01-23T02:02:19.857Z,51.30
2019-01-23T02:02:51.036Z,52.80
2019-01-23T02:03:22.254Z,49.63
2019-01-23T02:03:53.486Z,50.28
2019-01-23T02:04:24.693Z,52.55
2019-01-23T02:04:55.868Z,54.13
2019-01-23T02:05:27.057Z,51.85
2019-01-23T02:05:58.281Z,54.95
2019-01-23T02:06:29.446Z,53.38
2019-01-23T02:07:00.605Z,52.98
2019-01-23T02:07:31.796Z,55.90
2019-01-23T02:08:03.013Z,54.88
2019-01-23T02:08:34.225Z,53.35
2019-01-23T02:09:05.480Z,53.63
2019-01-23T02:09:36.668Z,53.33
2019-01-23T02:10:07.872Z,53.40
2019-01-23T02:10:39.119Z,54.70
2019-01-23T02:11:10.300Z,54.98
2019-01-23T02:11:41.491Z,54.10
2019-01-23T02:12:12.659Z,54.80
2019-01-23T02:12:43.857Z,51.33
2019-01-23T02:13:15.037Z,53.38
2019-01-23T02:13:46.227Z,55.92
2019-01-23T02:14:17.451Z,55.70
2019-01-23T02:14:48.622Z,54.95
2019-01-23T02:15:19.794Z,55.60
2019-01-23T02:15:51.017Z,53.25
2019-01-23T02:16:22.215Z,52.73
2019-01-23T02:16:53.392Z,50.75
2019-01-23T02:17:24.560Z,54.13
2019-01-23T02:17:55.797Z,51.90
2019-01-23T02:18:26.988Z,53.42
2019-01-23T02:18:58.150Z,53.20
2019-01-23T02:19:29.343Z,55.70
2019-01-23T02:20:00.540Z,54.95
2019-01-23T02:20:31.702Z,52.78
2019-01-23T02:21:02.891Z,55.85
2019-01-23T02:21:34.138Z,54.20
2019-01-23T02:22:05.301Z,53.23
2019-01-23T02:22:38.799Z,52.13
2019-01-23T02:23:10.982Z,51.45
2019-01-23T02:23:42.346Z,48.38
2019-01-23T02:24:13.883Z,50.15
2019-01-23T02:24:45.113Z,52.80
2019-01-23T02:25:16.280Z,49.93
2019-01-23T02:25:47.459Z,52.80
2019-01-23T02:26:18.669Z,51.50
2019-01-23T02:26:49.912Z,50.85
2019-01-23T02:27:21.034Z,50.73
2019-01-23T02:27:53.246Z,49.93
2019-01-23T02:28:24.433Z,51.28
2019-01-23T02:28:55.634Z,50.30
2019-01-23T02:29:26.807Z,50.48
2019-01-23T02:29:58.045Z,48.83
2019-01-23T02:30:29.246Z,49.63
2019-01-23T02:31:00.404Z,47.98
2019-01-23T02:31:31.603Z,48.73
2019-01-23T02:32:02.776Z,49.25
2019-01-23T02:32:33.964Z,49.35
2019-01-23T02:33:05.155Z,49.00
2019-01-23T02:33:37.342Z,48.92
2019-01-23T02:34:08.534Z,49.90
2019-01-23T02:34:39.740Z,50.45
2019-01-23T02:35:10.982Z,50.30
2019-01-23T02:35:42.192Z,51.48
2019-01-23T02:36:13.358Z,49.73
2019-01-23T02:36:44.550Z,51.53
2019-01-23T02:37:15.737Z,50.33
2019-01-23T02:37:46.927Z,49.93
2019-01-23T02:38:18.150Z,50.80
2019-01-23T02:38:49.336Z,48.28
2019-01-23T02:39:20.547Z,51.85
2019-01-23T02:39:51.753Z,52.88
2019-01-23T02:40:22.987Z,50.90
2019-01-23T02:40:54.170Z,49.13
2019-01-23T02:41:25.380Z,49.65
2019-01-23T02:41:56.595Z,50.63
2019-01-23T02:42:27.753Z,50.98
2019-01-23T02:42:58.939Z,50.35
2019-01-23T02:43:30.150Z,52.33
2019-01-23T02:44:01.318Z,53.23
2019-01-23T02:44:32.486Z,54.10
2019-01-23T02:45:03.710Z,55.63
2019-01-23T02:45:34.878Z,55.88
2019-01-23T02:46:06.069Z,54.13
2019-01-23T02:46:38.221Z,53.60
2019-01-23T02:47:09.400Z,57.10
2019-01-23T02:47:40.667Z,56.85
2019-01-23T02:48:11.823Z,56.40
2019-01-23T02:48:43.017Z,57.20
2019-01-23T02:49:14.171Z,59.50
2019-01-23T02:49:45.355Z,59.23
2019-01-23T02:50:17.445Z,57.90
2019-01-23T02:50:48.661Z,58.00
2019-01-23T02:51:20.038Z,54.25
2019-01-23T02:51:51.231Z,57.08
2019-01-23T02:52:22.449Z,58.55
2019-01-23T02:52:53.651Z,56.02
2019-01-23T02:53:24.886Z,55.40
2019-01-23T02:53:56.064Z,57.70
2019-01-23T02:54:27.336Z,56.35
2019-01-23T02:54:58.499Z,59.80
2019-01-23T02:55:29.664Z,57.20
2019-01-23T02:56:00.844Z,59.63
2019-01-23T02:56:32.057Z,58.95
2019-01-23T02:57:03.249Z,60.23
2019-01-23T02:57:34.447Z,56.68
2019-01-23T02:58:05.607Z,57.60
2019-01-23T02:58:36.823Z,54.27
2019-01-23T02:59:08.010Z,54.48
2019-01-23T02:59:39.267Z,54.53
2019-01-23T03:00:10.429Z,53.38
2019-01-23T03:00:41.625Z,54.85
2019-01-23T03:01:12.805Z,52.27
2019-01-23T03:01:43.989Z,50.03
2019-01-23T03:02:15.162Z,54.27
2019-01-23T03:02:48.614Z,53.92
2019-01-23T03:03:19.827Z,50.92
2019-01-23T03:03:51.045Z,53.35
2019-01-23T03:04:22.243Z,53.17
2019-01-23T03:04:53.478Z,53.58
2019-01-23T03:05:24.657Z,55.03
2019-01-23T03:05:55.912Z,54.63
2019-01-23T03:06:27.085Z,54.15
2019-01-23T03:06:58.270Z,55.08
2019-01-23T03:07:29.467Z,50.55
2019-01-23T03:08:00.666Z,52.70
2019-01-23T03:08:31.942Z,54.27
2019-01-23T03:09:03.142Z,55.00
2019-01-23T03:09:34.344Z,52.40
2019-01-23T03:10:05.577Z,49.58
2019-01-23T03:10:36.797Z,51.58
2019-01-23T03:11:07.988Z,53.48
2019-01-23T03:11:39.166Z,51.92
2019-01-23T03:12:10.467Z,50.70
2019-01-23T03:12:41.663Z,50.33
2019-01-23T03:13:12.849Z,50.80
2019-01-23T03:13:44.067Z,50.70
2019-01-23T03:14:15.186Z,50.85
2019-01-23T03:14:46.398Z,49.98
2019-01-23T03:15:17.576Z,50.10
2019-01-23T03:15:48.750Z,52.25
2019-01-23T03:16:19.927Z,55.20
2019-01-23T03:16:51.126Z,51.48
2019-01-23T03:17:22.344Z,53.58
2019-01-23T03:17:53.521Z,52.40
2019-01-23T03:18:24.700Z,57.67
2019-01-23T03:18:55.892Z,53.60
2019-01-23T03:19:27.071Z,52.45
2019-01-23T03:19:58.319Z,55.55
2019-01-23T03:20:29.527Z,55.67
2019-01-23T03:21:00.718Z,54.03
2019-01-23T03:21:31.928Z,52.60
2019-01-23T03:22:03.174Z,54.30
2019-01-23T03:22:36.789Z,57.60
2019-01-23T03:23:07.969Z,53.95
2019-01-23T03:23:39.159Z,56.53
2019-01-23T03:24:10.355Z,55.78
2019-01-23T03:24:41.549Z,58.33
2019-01-23T03:25:12.719Z,56.18
2019-01-23T03:25:43.908Z,51.68
2019-01-23T03:26:15.091Z,53.60
2019-01-23T03:26:46.297Z,55.25
2019-01-23T03:27:17.542Z,54.05
2019-01-23T03:27:48.734Z,55.73
2019-01-23T03:28:19.919Z,52.80
2019-01-23T03:28:51.098Z,53.10
2019-01-23T03:29:24.643Z,57.45
2019-01-23T03:29:55.168Z,58.00
2019-01-23T03:30:26.422Z,57.25
2019-01-23T03:30:57.578Z,58.52
2019-01-23T03:31:28.800Z,56.58
2019-01-23T03:31:59.998Z,56.45
2019-01-23T03:32:31.246Z,57.45
2019-01-23T03:33:02.447Z,58.23
2019-01-23T03:33:33.660Z,56.90
2019-01-23T03:34:04.825Z,55.52
2019-01-23T03:34:36.034Z,55.08
2019-01-23T03:35:07.224Z,54.63
2019-01-23T03:35:38.419Z,57.17
2019-01-23T03:36:09.587Z,55.28
2019-01-23T03:36:40.761Z,59.38
2019-01-23T03:37:11.920Z,56.88
2019-01-23T03:37:43.107Z,57.40
2019-01-23T03:38:14.269Z,60.05
2019-01-23T03:38:45.493Z,61.48
2019-01-23T03:39:16.663Z,56.95
2019-01-23T03:39:47.831Z,51.58
2019-01-23T03:40:19.036Z,52.20
2019-01-23T03:40:50.214Z,58.15
2019-01-23T03:41:21.398Z,57.33
2019-01-23T03:41:52.617Z,57.45
2019-01-23T03:42:23.790Z,57.95
2019-01-23T03:42:55.022Z,57.98
2019-01-23T03:43:26.262Z,60.55
2019-01-23T03:43:57.433Z,60.75
2019-01-23T03:44:28.614Z,54.45
2019-01-23T03:44:59.781Z,51.92
2019-01-23T03:45:31.003Z,54.50
2019-01-23T03:46:02.209Z,54.85
2019-01-23T03:46:33.367Z,53.92
2019-01-23T03:47:04.546Z,54.10
2019-01-23T03:47:35.709Z,57.65
2019-01-23T03:48:06.923Z,54.95
2019-01-23T03:48:38.073Z,55.55
2019-01-23T03:49:09.290Z,56.08
2019-01-23T03:49:40.505Z,55.58
2019-01-23T03:50:11.681Z,55.60
2019-01-23T03:50:43.181Z,54.85
2019-01-23T03:51:14.374Z,55.73
2019-01-23T03:51:45.545Z,52.25
2019-01-23T03:52:16.733Z,51.37
2019-01-23T03:52:47.909Z,56.42
2019-01-23T03:53:19.164Z,53.58
2019-01-23T03:53:50.377Z,53.23
2019-01-23T03:54:21.566Z,50.60
2019-01-23T03:54:52.739Z,51.05
2019-01-23T03:55:23.993Z,53.85
2019-01-23T03:55:55.187Z,51.88
2019-01-23T03:56:26.425Z,54.63
2019-01-23T03:56:57.652Z,48.58
2019-01-23T03:57:28.891Z,50.55
2019-01-23T03:58:00.079Z,52.65
2019-01-23T03:58:31.244Z,53.28
2019-01-23T03:59:04.567Z,54.53
2019-01-23T03:59:35.731Z,56.90
2019-01-23T04:00:06.916Z,55.43
2019-01-23T04:00:38.131Z,50.40
2019-01-23T04:01:09.330Z,48.80
2019-01-23T04:01:40.494Z,52.03
2019-01-23T04:02:11.667Z,53.48
2019-01-23T04:02:42.869Z,53.83
2019-01-23T04:03:14.041Z,55.85
2019-01-23T04:03:45.225Z,51.68
2019-01-23T04:04:16.406Z,56.10
2019-01-23T04:04:47.596Z,56.40
2019-01-23T04:05:18.842Z,56.05
2019-01-23T04:05:50.025Z,56.83
2019-01-23T04:06:21.226Z,53.58
2019-01-23T04:06:52.408Z,55.33
2019-01-23T04:07:23.582Z,55.12
2019-01-23T04:07:54.750Z,54.58
2019-01-23T04:08:25.940Z,56.02
2019-01-23T04:08:57.120Z,56.70
2019-01-23T04:09:28.295Z,55.17
2019-01-23T04:09:59.497Z,55.98
2019-01-23T04:10:30.725Z,55.55
2019-01-23T04:11:01.906Z,53.58
2019-01-23T04:11:33.106Z,54.38
2019-01-23T04:12:04.336Z,56.55
2019-01-23T04:12:35.512Z,54.63
2019-01-23T04:13:06.723Z,55.83
2019-01-23T04:13:37.882Z,52.90
2019-01-23T04:14:09.104Z,51.18
2019-01-23T04:14:40.279Z,57.65
2019-01-23T04:15:11.472Z,55.55
2019-01-23T04:15:42.663Z,57.58
2019-01-23T04:16:13.874Z,57.38
2019-01-23T04:16:45.122Z,58.95
2019-01-23T04:17:16.295Z,60.73
2019-01-23T04:17:47.512Z,58.05
2019-01-23T04:18:18.728Z,57.25
2019-01-23T04:18:49.972Z,55.15
2019-01-23T04:19:21.153Z,57.88
2019-01-23T04:19:52.355Z,57.88
2019-01-23T04:20:23.596Z,57.45
2019-01-23T04:20:54.843Z,59.70
2019-01-23T04:21:26.015Z,57.62
2019-01-23T04:21:57.195Z,57.53
2019-01-23T04:22:28.391Z,56.30
2019-01-23T04:22:59.638Z,59.98
2019-01-23T04:23:30.931Z,57.58
2019-01-23T04:24:02.130Z,61.13
2019-01-23T04:24:33.330Z,57.25
2019-01-23T04:25:04.517Z,58.42
2019-01-23T04:25:35.733Z,55.98
2019-01-23T04:26:06.954Z,58.10
2019-01-23T04:26:38.133Z,60.45
2019-01-23T04:27:09.310Z,59.67
2019-01-23T04:27:40.527Z,57.20
2019-01-23T04:28:11.796Z,59.23
2019-01-23T04:28:42.968Z,58.42
2019-01-23T04:29:14.170Z,58.50
2019-01-23T04:29:45.365Z,60.28
2019-01-23T04:30:16.593Z,62.15
2019-01-23T04:30:47.824Z,61.92
2019-01-23T04:31:19.013Z,59.08
2019-01-23T04:31:50.197Z,58.70
2019-01-23T04:32:21.390Z,61.15
2019-01-23T04:32:52.592Z,62.35
2019-01-23T04:33:23.783Z,62.15
2019-01-23T04:33:54.994Z,63.45
2019-01-23T04:34:26.226Z,60.80
2019-01-23T04:34:57.405Z,59.15
2019-01-23T04:35:28.629Z,58.80
2019-01-23T04:35:59.824Z,63.33
2019-01-23T04:36:31.024Z,64.90
2019-01-23T04:37:02.237Z,64.95
2019-01-23T04:37:33.444Z,66.95
2019-01-23T04:38:04.714Z,71.20
2019-01-23T04:38:35.890Z,71.25
2019-01-23T04:39:07.065Z,67.03
2019-01-23T04:39:38.248Z,76.00
2019-01-23T04:40:09.422Z,72.15
2019-01-23T04:40:40.667Z,72.82
2019-01-23T04:41:11.867Z,74.60
2019-01-23T04:41:43.059Z,72.05
2019-01-23T04:42:14.265Z,71.25
2019-01-23T04:42:45.512Z,74.50
2019-01-23T04:43:16.700Z,68.40
2019-01-23T04:43:47.878Z,72.00
2019-01-23T04:44:19.068Z,69.60
2019-01-23T04:44:50.271Z,68.80
2019-01-23T04:45:21.455Z,64.25
2019-01-23T04:45:52.753Z,70.85
2019-01-23T04:46:23.954Z,67.17
2019-01-23T04:46:55.183Z,65.78
2019-01-23T04:47:26.386Z,70.17
2019-01-23T04:47:57.633Z,68.30
2019-01-23T04:48:28.883Z,68.55
2019-01-23T04:49:00.048Z,70.03
2019-01-23T04:49:31.243Z,66.37
2019-01-23T04:50:02.413Z,67.55
2019-01-23T04:50:33.580Z,65.37
2019-01-23T04:51:04.849Z,68.20
2019-01-23T04:51:36.921Z,66.33
2019-01-23T04:52:08.143Z,61.55
2019-01-23T04:52:39.320Z,59.58
2019-01-23T04:53:10.513Z,60.70
2019-01-23T04:53:41.702Z,63.75
2019-01-23T04:54:12.887Z,62.45
2019-01-23T04:54:44.097Z,62.80
2019-01-23T04:55:15.343Z,59.93
2019-01-23T04:55:46.527Z,61.23
2019-01-23T04:56:18.931Z,61.30
2019-01-23T04:56:50.144Z,62.50
2019-01-23T04:57:21.352Z,62.33
2019-01-23T04:57:52.564Z,60.65
2019-01-23T04:58:23.791Z,67.00
2019-01-23T04:58:54.961Z,60.52
2019-01-23T04:59:26.154Z,62.62
2019-01-23T04:59:57.334Z,61.50
2019-01-23T05:00:28.556Z,62.67
2019-01-23T05:00:59.791Z,60.30
2019-01-23T05:01:31.036Z,58.55
2019-01-23T05:02:02.230Z,61.95
2019-01-23T05:02:33.409Z,62.70
2019-01-23T05:03:04.594Z,60.73
2019-01-23T05:03:35.895Z,63.58
2019-01-23T05:04:09.161Z,64.80
2019-01-23T05:04:40.362Z,58.87
2019-01-23T05:05:11.605Z,62.88
2019-01-23T05:05:42.771Z,64.25
2019-01-23T05:06:13.965Z,63.55
2019-01-23T05:06:45.149Z,59.90
2019-01-23T05:07:16.320Z,62.38
2019-01-23T05:07:47.488Z,63.35
2019-01-23T05:08:18.700Z,63.50
2019-01-23T05:08:49.881Z,62.88
2019-01-23T05:09:21.075Z,63.28
2019-01-23T05:09:52.267Z,60.10
2019-01-23T05:10:23.496Z,62.50
2019-01-23T05:10:54.681Z,59.33
2019-01-23T05:11:25.883Z,61.42
2019-01-23T05:11:57.086Z,55.60
2019-01-23T05:12:28.291Z,60.48
2019-01-23T05:12:59.528Z,59.05
2019-01-23T05:13:30.708Z,61.05
2019-01-23T05:14:01.901Z,59.48
2019-01-23T05:14:33.074Z,59.53
2019-01-23T05:15:04.277Z,59.80
2019-01-23T05:15:35.481Z,59.13
2019-01-23T05:16:06.695Z,57.03
2019-01-23T05:16:37.869Z,57.62
2019-01-23T05:17:09.039Z,54.08
2019-01-23T05:17:40.205Z,56.33
2019-01-23T05:18:11.426Z,54.77
2019-01-23T05:18:42.642Z,54.63
2019-01-23T05:19:13.823Z,54.60
2019-01-23T05:19:45.044Z,55.75
2019-01-23T05:20:16.252Z,54.30
2019-01-23T05:20:47.442Z,53.25
2019-01-23T05:21:18.637Z,53.70
2019-01-23T05:21:49.803Z,54.00
2019-01-23T05:22:21.021Z,54.23
2019-01-23T05:22:52.253Z,55.58
2019-01-23T05:23:23.421Z,54.08
2019-01-23T05:23:54.623Z,53.50
2019-01-23T05:24:25.818Z,51.70
2019-01-23T05:24:57.005Z,53.63
2019-01-23T05:25:28.174Z,53.08
2019-01-23T05:25:59.371Z,52.88
2019-01-23T05:26:30.559Z,52.43
2019-01-23T05:27:01.734Z,54.10
2019-01-23T05:27:32.923Z,54.40
2019-01-23T05:28:04.081Z,57.35
2019-01-23T05:28:35.283Z,57.08
2019-01-23T05:29:06.547Z,51.92
2019-01-23T05:29:37.763Z,52.23
2019-01-23T05:30:08.942Z,52.53
2019-01-23T05:30:40.114Z,53.30
2019-01-23T05:31:11.296Z,53.02
2019-01-23T05:31:42.497Z,54.88
2019-01-23T05:32:13.733Z,54.10
2019-01-23T05:32:44.917Z,56.45
2019-01-23T05:33:16.104Z,55.15
2019-01-23T05:33:47.323Z,53.25
2019-01-23T05:34:18.583Z,55.80
2019-01-23T05:34:49.776Z,55.50
2019-01-23T05:35:20.966Z,55.92
2019-01-23T05:35:52.176Z,55.58
2019-01-23T05:36:23.364Z,55.48
2019-01-23T05:36:54.569Z,57.83
2019-01-23T05:37:25.807Z,53.02
2019-01-23T05:37:57.001Z,55.90
2019-01-23T05:38:28.201Z,54.67
2019-01-23T05:38:59.392Z,54.40
2019-01-23T05:39:30.600Z,54.95
2019-01-23T05:40:01.786Z,53.95
2019-01-23T05:40:32.969Z,54.83
2019-01-23T05:41:04.156Z,55.95
2019-01-23T05:41:35.442Z,54.80
2019-01-23T05:42:06.613Z,53.65
2019-01-23T05:42:37.790Z,54.20
2019-01-23T05:43:08.977Z,57.75
2019-01-23T05:43:40.166Z,54.63
2019-01-23T05:44:11.374Z,56.33
2019-01-23T05:44:42.610Z,56.68
2019-01-23T05:45:13.799Z,54.23
2019-01-23T05:45:44.990Z,53.75
2019-01-23T05:46:16.597Z,53.02
2019-01-23T05:46:47.798Z,53.70
2019-01-23T05:47:18.950Z,53.85
2019-01-23T05:47:50.168Z,53.02
2019-01-23T05:48:21.304Z,53.55
2019-01-23T05:48:52.505Z,53.28
2019-01-23T05:49:23.710Z,53.78
2019-01-23T05:49:55.207Z,52.27
2019-01-23T05:50:26.376Z,55.73
2019-01-23T05:50:57.607Z,55.92
2019-01-23T05:51:28.806Z,54.00
2019-01-23T05:52:00.010Z,52.80
2019-01-23T05:52:31.205Z,52.20
2019-01-23T05:53:02.387Z,55.15
2019-01-23T05:53:33.598Z,54.98
2019-01-23T05:54:04.805Z,55.23
2019-01-23T05:54:35.987Z,54.20
2019-01-23T05:55:07.183Z,54.10
2019-01-23T05:55:38.367Z,56.20
2019-01-23T05:56:09.629Z,57.88
2019-01-23T05:56:40.811Z,53.30
2019-01-23T05:57:11.991Z,54.77
2019-01-23T05:57:43.208Z,54.70
2019-01-23T05:58:14.423Z,56.53
2019-01-23T05:58:45.657Z,56.18
2019-01-23T05:59:16.827Z,56.88
2019-01-23T05:59:48.043Z,55.25
2019-01-23T06:00:19.277Z,56.05
2019-01-23T06:00:50.481Z,57.00
2019-01-23T06:01:21.700Z,55.78
2019-01-23T06:01:52.906Z,55.10
2019-01-23T06:02:24.108Z,56.98
2019-01-23T06:02:55.312Z,55.20
2019-01-23T06:03:26.485Z,56.18
2019-01-23T06:03:57.677Z,56.28
2019-01-23T06:04:28.831Z,56.50
2019-01-23T06:05:00.031Z,55.25
2019-01-23T06:05:31.211Z,56.48
2019-01-23T06:06:02.412Z,56.40
2019-01-23T06:06:33.645Z,57.75
2019-01-23T06:07:04.865Z,56.98
2019-01-23T06:07:36.049Z,56.68
2019-01-23T06:08:07.325Z,55.75
2019-01-23T06:08:38.504Z,57.70
2019-01-23T06:09:09.684Z,56.25
2019-01-23T06:09:40.867Z,56.40
2019-01-23T06:10:12.054Z,56.98
2019-01-23T06:10:43.335Z,58.98
2019-01-23T06:11:14.546Z,55.10
2019-01-23T06:11:45.791Z,56.80
2019-01-23T06:12:16.978Z,57.27
2019-01-23T06:12:48.164Z,56.92
2019-01-23T06:13:19.341Z,57.88
2019-01-23T06:13:50.524Z,56.80
2019-01-23T06:14:21.716Z,54.55
2019-01-23T06:14:52.921Z,55.83
2019-01-23T06:15:24.133Z,54.88
2019-01-23T06:15:55.362Z,57.43
2019-01-23T06:16:26.553Z,55.05
2019-01-23T06:16:57.791Z,55.55
2019-01-23T06:17:28.991Z,57.17
2019-01-23T06:18:00.180Z,57.60
2019-01-23T06:18:31.427Z,54.50
2019-01-23T06:19:02.628Z,58.92
2019-01-23T06:19:33.833Z,57.05
2019-01-23T06:20:05.007Z,56.30
2019-01-23T06:20:36.213Z,55.45
2019-01-23T06:21:07.395Z,55.85
2019-01-23T06:21:38.601Z,55.17
2019-01-23T06:22:09.846Z,57.50
2019-01-23T06:22:41.063Z,56.40
2019-01-23T06:23:12.298Z,56.53
2019-01-23T06:23:43.519Z,55.58
2019-01-23T06:24:14.732Z,56.10
2019-01-23T06:24:45.871Z,53.80
2019-01-23T06:25:17.075Z,54.15
2019-01-23T06:25:48.239Z,54.18
2019-01-23T06:26:19.389Z,54.03
2019-01-23T06:26:50.609Z,55.35
2019-01-23T06:27:21.786Z,53.20
2019-01-23T06:27:53.032Z,53.23
2019-01-23T06:28:24.209Z,53.58
2019-01-23T06:28:55.421Z,52.98
2019-01-23T06:29:26.593Z,54.42
2019-01-23T06:29:57.792Z,52.70
2019-01-23T06:30:28.962Z,56.08
2019-01-23T06:31:00.154Z,52.95
2019-01-23T06:31:31.374Z,53.45
2019-01-23T06:32:02.584Z,52.93
2019-01-23T06:32:33.807Z,53.98
2019-01-23T06:33:05.052Z,53.73
2019-01-23T06:33:36.221Z,52.93
2019-01-23T06:34:07.421Z,54.27
2019-01-23T06:34:38.596Z,54.03
2019-01-23T06:35:09.804Z,53.40
2019-01-23T06:35:40.980Z,57.08
2019-01-23T06:36:12.214Z,58.58
2019-01-23T06:36:43.387Z,56.28
2019-01-23T06:37:15.641Z,57.48
2019-01-23T06:37:47.015Z,57.62
2019-01-23T06:38:18.192Z,58.50
2019-01-23T06:38:49.352Z,54.18
2019-01-23T06:39:20.525Z,55.98
2019-01-23T06:39:51.682Z,55.38
2019-01-23T06:40:22.905Z,55.75
2019-01-23T06:40:54.160Z,55.55
2019-01-23T06:41:25.333Z,56.83
2019-01-23T06:41:56.507Z,56.40